Last 6 Hours

AM-Scott Top 8120'

15 Minute Data | America/Los_Angeles
as of 9/6/26 4:25 AM PDT
Date & Time Temp (°F) RH (%) Dew Pt (°F) Wet Bulb (°F) Wind Dir (°) Wind Spd (mph) Wind Gust (mph) WindChill (°F) Daily Min Temp (°F) Daily Max Temp (°F)
9/6/26 - 0415 43.5 82 38.2 40.7 NNW | 330 21.7 32.2 33.9 42.4 44.8
9/6/26 - 0400 43.2 84 38.6 40.8 N | 349 21.8 35.4 34.6 42.4 44.8
9/6/26 - 0345 43.0 86 38.9 40.8 NNW | 344 19.9 30.4 35.0 42.4 44.8
9/6/26 - 0330 43.7 84 39.2 41.3 NNW | 336 20.4 31.1 36.5 42.4 44.8
9/6/26 - 0315 43.2 88 39.7 41.3 NNW | 343 19.2 33.8 36.3 42.4 44.8
9/6/26 - 0300 43.1 88 39.8 41.4 NNW | 343 17.4 25.4 34.6 42.4 44.8
9/6/26 - 0245 42.6 90 40.0 41.2 NNW | 343 16.5 26.1 36.2 42.6 44.8
9/6/26 - 0230 43.2 88 39.9 41.4 NNW | 339 17.3 31.7 36.4 42.8 44.8
9/6/26 - 0215 43.1 88 39.9 41.4 NNW | 337 17.9 25.8 36.8 42.8 44.8
9/6/26 - 0200 43.0 89 40.0 41.4 NNW | 331 18.2 26.0 35.6 42.8 44.8
9/6/26 - 0145 43.5 86 39.8 41.5 NNW | 336 17.0 24.0 36.4 42.8 44.8
9/6/26 - 0130 43.6 85 39.6 41.4 NNW | 345 16.8 27.1 36.0 42.8 44.8
9/6/26 - 0115 43.1 88 39.7 41.3 NNW | 342 16.6 25.5 34.2 42.8 44.8
9/6/26 - 0100 43.0 87 39.4 41.1 NNW | 339 17.8 28.5 35.1 42.9 44.8
9/6/26 - 0045 43.3 87 39.7 41.4 NNW | 335 18.5 27.5 35.8 43.0 44.8
9/6/26 - 0030 43.5 84 39.1 41.2 NNW | 333 20.0 29.1 35.2 43.4 44.8
9/6/26 - 0015 44.5 80 38.6 41.4 NNW | 328 20.6 31.1 36.4 43.9 44.6
9/6/26 - 0000 44.3 83 39.4 41.7 NNW | 330 19.3 28.3 35.8 40.1 50.8
9/5/26 - 2345 43.5 87 39.8 41.5 NNW | 338 18.9 30.1 36.9 40.1 50.8
9/5/26 - 2330 43.2 89 40.3 41.6 NNW | 343 18.5 27.9 35.7 40.1 50.8
9/5/26 - 2315 42.7 91 40.3 41.4 NNW | 342 17.5 26.8 34.7 40.1 50.8
9/5/26 - 2300 42.4 92 40.4 41.3 NNW | 336 18.1 25.7 34.3 40.1 50.8
9/5/26 - 2245 42.3 93 40.5 41.4 NNW | 340 16.6 25.9 33.2 40.1 50.8
9/5/26 - 2230 41.8 95 40.5 41.1 NNW | 346 17.3 27.5 32.3 40.1 50.8
Max 44.5 95 40.5 41.7 - 21.8 35.4 36.9 43.9 50.8
Avg 43.2 87 39.6 41.3 - 18.5 28.5 35.3 - -
Min 41.8 80 38.2 40.7 - 16.5 24.0 32.3 40.1 44.6